createdAt,value
2017-12-08T00:02:08.819Z,86.40
2017-12-08T00:04:35.041Z,87.00
2017-12-08T00:07:01.302Z,86.50
2017-12-08T00:09:27.560Z,85.90
2017-12-08T00:11:53.797Z,85.80
2017-12-08T00:14:20.041Z,85.70
2017-12-08T00:16:46.296Z,85.00
2017-12-08T00:19:12.558Z,85.40
2017-12-08T00:21:38.794Z,84.70
2017-12-08T00:24:05.029Z,83.90
2017-12-08T00:26:33.370Z,83.10
2017-12-08T00:28:59.598Z,84.20
2017-12-08T00:31:26.567Z,84.40
2017-12-08T00:33:53.522Z,83.80
2017-12-08T00:36:19.758Z,83.80
2017-12-08T00:38:46.017Z,84.70
2017-12-08T00:41:12.245Z,82.60
2017-12-08T00:43:45.058Z,82.70
2017-12-08T00:46:11.411Z,82.50
2017-12-08T00:48:37.666Z,82.80
2017-12-08T00:51:03.894Z,82.30
2017-12-08T00:53:31.125Z,81.90
2017-12-08T00:55:58.114Z,82.50
2017-12-08T00:58:24.388Z,82.50
2017-12-08T01:00:50.624Z,82.40
2017-12-08T01:03:19.985Z,82.30
2017-12-08T01:05:46.247Z,82.50
2017-12-08T01:08:12.485Z,81.70
2017-12-08T01:10:38.754Z,82.40
2017-12-08T01:13:05.041Z,81.80
2017-12-08T01:15:32.031Z,82.20
2017-12-08T01:17:58.278Z,82.30
2017-12-08T01:20:25.233Z,82.30
2017-12-08T01:22:51.466Z,82.30
2017-12-08T01:25:17.712Z,82.40
2017-12-08T01:27:44.145Z,82.40
2017-12-08T01:30:11.106Z,81.70
2017-12-08T01:32:38.222Z,81.70
2017-12-08T01:35:04.482Z,81.70
2017-12-08T01:37:31.476Z,82.20
2017-12-08T01:39:57.706Z,82.20
2017-12-08T01:42:23.958Z,82.00
2017-12-08T01:44:50.218Z,81.60
2017-12-08T01:47:16.444Z,82.30
2017-12-08T01:49:42.690Z,82.10
2017-12-08T01:52:08.973Z,82.10
2017-12-08T01:54:36.216Z,82.70
2017-12-08T01:57:02.505Z,82.70
2017-12-08T01:59:28.757Z,82.00
2017-12-08T02:01:55.006Z,82.00
2017-12-08T02:04:21.239Z,81.70
2017-12-08T02:06:47.458Z,81.00
2017-12-08T02:09:14.477Z,81.90
2017-12-08T02:11:41.459Z,81.00
2017-12-08T02:14:07.682Z,81.00
2017-12-08T02:16:33.965Z,80.50
2017-12-08T02:19:00.214Z,80.50
2017-12-08T02:21:26.478Z,80.00
2017-12-08T02:23:52.713Z,79.60
2017-12-08T02:26:19.657Z,80.30
2017-12-08T02:28:45.903Z,80.20
2017-12-08T02:31:12.866Z,80.80
2017-12-08T02:33:39.170Z,80.80
2017-12-08T02:36:05.435Z,79.80
2017-12-08T02:38:32.414Z,80.20
2017-12-08T02:40:59.378Z,80.80
2017-12-08T02:43:26.362Z,80.60
2017-12-08T02:45:52.397Z,80.80
2017-12-08T02:48:18.469Z,81.60
2017-12-08T02:50:45.462Z,80.90
2017-12-08T02:53:11.605Z,80.80
2017-12-08T02:55:37.899Z,81.50
2017-12-08T02:58:04.136Z,80.20
2017-12-08T03:00:30.358Z,79.40
2017-12-08T03:02:56.706Z,79.50
2017-12-08T03:05:22.925Z,79.80
2017-12-08T03:07:49.190Z,78.60
2017-12-08T03:10:15.461Z,79.40
2017-12-08T03:12:41.740Z,79.00
2017-12-08T03:15:07.990Z,79.10
2017-12-08T03:17:34.754Z,78.40
2017-12-08T03:20:01.017Z,78.40
2017-12-08T03:22:28.031Z,78.20
2017-12-08T03:24:55.019Z,77.70
2017-12-08T03:27:21.233Z,77.70
2017-12-08T03:29:47.494Z,78.90
2017-12-08T03:32:13.767Z,78.90
2017-12-08T03:34:39.980Z,78.90
2017-12-08T03:37:06.246Z,79.10
2017-12-08T03:39:32.478Z,79.80
2017-12-08T03:41:58.730Z,81.20
2017-12-08T03:44:24.995Z,79.70
2017-12-08T03:46:51.290Z,78.90
2017-12-08T03:49:17.556Z,79.60
2017-12-08T03:51:43.820Z,81.10
2017-12-08T03:54:13.942Z,80.70
2017-12-08T03:56:40.198Z,81.20
2017-12-08T03:59:07.189Z,81.30
2017-12-08T04:01:33.459Z,81.20
2017-12-08T04:03:59.709Z,78.90
2017-12-08T04:06:25.955Z,79.00
2017-12-08T04:08:52.209Z,78.50
2017-12-08T04:11:18.437Z,78.40
2017-12-08T04:13:44.689Z,78.80
2017-12-08T04:16:10.956Z,78.20
2017-12-08T04:18:37.214Z,77.50
2017-12-08T04:21:04.500Z,78.50
2017-12-08T04:23:30.753Z,79.00
2017-12-08T04:25:56.998Z,79.00
2017-12-08T04:28:23.245Z,77.10
2017-12-08T04:30:49.517Z,77.30
2017-12-08T04:33:15.766Z,78.80
2017-12-08T04:35:42.038Z,77.10
2017-12-08T04:38:08.313Z,78.40
2017-12-08T04:40:34.577Z,77.60
2017-12-08T04:43:01.570Z,77.60
2017-12-08T04:45:27.821Z,77.30
2017-12-08T04:47:54.623Z,78.00
2017-12-08T04:50:20.882Z,77.70
2017-12-08T04:52:47.105Z,77.90
2017-12-08T04:55:13.318Z,77.80
2017-12-08T04:57:39.557Z,78.40
2017-12-08T05:00:06.551Z,78.20
2017-12-08T05:02:33.786Z,78.30
2017-12-08T05:05:00.026Z,77.40
2017-12-08T05:07:26.269Z,77.00
2017-12-08T05:09:52.517Z,77.40
2017-12-08T05:12:18.752Z,74.50
2017-12-08T05:14:45.005Z,75.40
2017-12-08T05:17:11.241Z,75.10
2017-12-08T05:19:37.494Z,74.60
2017-12-08T05:22:03.765Z,74.50
2017-12-08T05:24:29.988Z,74.70
2017-12-08T05:26:56.271Z,74.90
2017-12-08T05:29:23.276Z,74.90
2017-12-08T05:31:49.534Z,74.80
2017-12-08T05:34:15.788Z,74.60
2017-12-08T05:36:42.778Z,75.10
2017-12-08T05:39:09.045Z,75.10
2017-12-08T05:41:35.303Z,75.00
2017-12-08T05:44:01.535Z,75.50
2017-12-08T05:46:27.758Z,75.50
2017-12-08T05:48:54.014Z,75.90
2017-12-08T05:51:20.285Z,75.60
2017-12-08T05:53:46.524Z,75.80
2017-12-08T05:56:13.604Z,75.50
2017-12-08T05:58:40.614Z,75.80
2017-12-08T06:01:06.898Z,75.80
2017-12-08T06:03:33.190Z,75.80
2017-12-08T06:05:59.437Z,75.50
2017-12-08T06:08:25.691Z,75.40
2017-12-08T06:10:52.738Z,75.40
2017-12-08T06:13:18.984Z,75.60
2017-12-08T06:15:45.238Z,74.60
2017-12-08T06:18:11.502Z,75.10
2017-12-08T06:20:37.802Z,75.20
2017-12-08T06:23:04.128Z,74.80
2017-12-08T06:25:31.690Z,75.30
2017-12-08T06:27:58.662Z,75.30
2017-12-08T06:30:24.897Z,75.30
2017-12-08T06:32:51.893Z,74.70
2017-12-08T06:35:18.150Z,74.70
2017-12-08T06:37:44.371Z,74.80
2017-12-08T06:40:10.663Z,74.10
2017-12-08T06:42:37.654Z,74.70
2017-12-08T06:45:03.928Z,74.70
2017-12-08T06:47:30.169Z,74.00
2017-12-08T06:49:56.478Z,73.90
2017-12-08T06:52:24.737Z,74.10
2017-12-08T06:54:50.978Z,73.70
2017-12-08T06:57:17.182Z,73.40
2017-12-08T06:59:43.769Z,73.90
2017-12-08T07:02:10.011Z,73.40
2017-12-08T07:04:37.006Z,73.70
2017-12-08T07:07:03.237Z,73.70
2017-12-08T07:09:29.465Z,74.50
2017-12-08T07:11:56.494Z,73.60
2017-12-08T07:14:22.786Z,73.50
2017-12-08T07:16:49.042Z,73.80
2017-12-08T07:19:15.278Z,73.50
2017-12-08T07:21:41.513Z,73.60
2017-12-08T07:24:08.235Z,74.40
2017-12-08T07:26:34.669Z,73.80
2017-12-08T07:29:01.819Z,74.30
2017-12-08T07:31:28.810Z,73.60
2017-12-08T07:33:55.070Z,74.00
2017-12-08T07:36:21.478Z,75.20
2017-12-08T07:38:48.464Z,74.50
2017-12-08T07:41:14.776Z,74.60
2017-12-08T07:43:41.006Z,74.10
2017-12-08T07:46:08.032Z,72.50
2017-12-08T07:48:34.282Z,72.40
2017-12-08T07:51:00.529Z,71.70
2017-12-08T07:53:26.770Z,70.00
2017-12-08T07:55:53.063Z,70.90
2017-12-08T07:58:19.328Z,71.00
2017-12-08T08:00:45.605Z,70.00
2017-12-08T08:03:14.423Z,70.60
2017-12-08T08:05:40.794Z,70.70
2017-12-08T08:08:08.137Z,70.50
2017-12-08T08:10:34.440Z,71.10
2017-12-08T08:13:00.751Z,71.30
2017-12-08T08:15:27.853Z,71.60
2017-12-08T08:17:55.554Z,71.60
2017-12-08T08:20:21.789Z,71.50
2017-12-08T08:22:48.006Z,72.50
2017-12-08T08:25:14.291Z,72.50
2017-12-08T08:27:41.282Z,71.30
2017-12-08T08:30:08.289Z,72.60
2017-12-08T08:32:34.545Z,72.40
2017-12-08T08:35:00.757Z,71.90
2017-12-08T08:37:33.338Z,71.70
2017-12-08T08:39:59.572Z,71.90
2017-12-08T08:42:25.854Z,72.20
2017-12-08T08:44:52.170Z,71.80
2017-12-08T08:47:18.408Z,72.70
2017-12-08T08:49:45.361Z,72.20
2017-12-08T08:52:11.622Z,71.60
2017-12-08T08:54:37.943Z,71.40
2017-12-08T08:57:05.867Z,71.90
2017-12-08T08:59:32.322Z,71.60
2017-12-08T09:01:58.694Z,70.40
2017-12-08T09:04:25.138Z,70.80
2017-12-08T09:06:51.527Z,70.40
2017-12-08T09:09:17.797Z,69.10
2017-12-08T09:11:44.070Z,69.60
2017-12-08T09:14:11.046Z,69.60
2017-12-08T09:16:37.571Z,69.50
2017-12-08T09:19:04.715Z,68.50
2017-12-08T09:21:30.963Z,69.40
2017-12-08T09:23:57.277Z,68.00
2017-12-08T09:26:23.544Z,68.10
2017-12-08T09:28:50.555Z,67.90
2017-12-08T09:31:24.501Z,67.80
2017-12-08T09:33:50.796Z,66.40
2017-12-08T09:36:17.046Z,67.60
2017-12-08T09:38:43.359Z,67.20
2017-12-08T09:41:09.634Z,66.70
2017-12-08T09:43:36.634Z,68.70
2017-12-08T09:46:06.602Z,68.60
2017-12-08T09:48:32.877Z,68.60
2017-12-08T09:50:59.861Z,69.10
2017-12-08T09:53:26.078Z,69.00
2017-12-08T09:55:52.358Z,68.80
2017-12-08T09:58:18.601Z,69.70
2017-12-08T10:00:44.865Z,69.50
2017-12-08T10:03:14.518Z,70.80
2017-12-08T10:05:41.310Z,73.00
2017-12-08T10:08:07.382Z,73.00
2017-12-08T10:10:33.441Z,73.80
2017-12-08T10:12:59.522Z,73.80
2017-12-08T10:15:25.590Z,75.20
2017-12-08T10:17:51.718Z,74.40
2017-12-08T10:20:21.694Z,73.50
2017-12-08T10:22:47.840Z,73.70
2017-12-08T10:25:13.930Z,76.50
2017-12-08T10:27:39.990Z,76.60
2017-12-08T10:30:06.046Z,76.80
2017-12-08T10:32:32.106Z,77.30
2017-12-08T10:34:58.159Z,77.00
2017-12-08T10:37:28.694Z,76.50
2017-12-08T10:39:54.743Z,77.20
2017-12-08T10:42:20.782Z,76.60
2017-12-08T10:44:46.854Z,76.20
2017-12-08T10:47:12.893Z,74.60
2017-12-08T10:49:39.014Z,75.20
2017-12-08T10:52:05.864Z,75.40
2017-12-08T10:54:35.151Z,75.40
2017-12-08T10:57:01.221Z,75.40
2017-12-08T10:59:27.295Z,76.20
2017-12-08T11:01:53.355Z,75.20
2017-12-08T11:04:19.434Z,76.50
2017-12-08T11:06:45.494Z,77.70
2017-12-08T11:09:11.563Z,77.20
2017-12-08T11:11:40.858Z,76.60
2017-12-08T11:14:06.929Z,76.00
2017-12-08T11:16:33.001Z,75.70
2017-12-08T11:18:59.822Z,77.60
2017-12-08T11:21:25.882Z,77.50
2017-12-08T11:23:51.950Z,77.10
2017-12-08T11:26:18.762Z,78.60
2017-12-08T11:28:44.861Z,78.30
2017-12-08T11:31:13.177Z,78.80
2017-12-08T11:33:39.285Z,79.80
2017-12-08T11:36:06.093Z,80.90
2017-12-08T11:38:32.178Z,80.80
2017-12-08T11:40:58.978Z,80.50
2017-12-08T11:43:25.090Z,80.40
2017-12-08T11:45:51.889Z,80.50
2017-12-08T11:48:22.891Z,80.40
2017-12-08T11:50:49.690Z,81.40
2017-12-08T11:53:15.761Z,81.40
2017-12-08T11:55:41.797Z,81.70
2017-12-08T11:58:07.902Z,81.50
2017-12-08T12:00:33.973Z,81.60
2017-12-08T12:03:00.038Z,82.90
2017-12-08T12:05:31.062Z,82.50
2017-12-08T12:07:57.161Z,82.60
2017-12-08T12:10:23.225Z,83.50
2017-12-08T12:12:50.038Z,84.10
2017-12-08T12:15:16.091Z,84.10
2017-12-08T12:17:42.146Z,83.80
2017-12-08T12:20:08.193Z,84.30
2017-12-08T12:22:34.242Z,85.60
2017-12-08T12:25:02.870Z,86.50
2017-12-08T12:27:28.942Z,85.00
2017-12-08T12:29:54.998Z,86.60
2017-12-08T12:32:21.042Z,86.00
2017-12-08T12:34:47.120Z,85.40
2017-12-08T12:37:13.927Z,86.30
2017-12-08T12:39:39.974Z,86.20
2017-12-08T12:42:06.010Z,85.70
2017-12-08T12:47:05.579Z,85.90
2017-12-08T12:49:31.642Z,85.80
2017-12-08T12:51:57.694Z,86.00
2017-12-08T12:54:23.741Z,85.60
2017-12-08T12:56:49.805Z,85.70
2017-12-08T12:59:16.602Z,86.80
2017-12-08T13:01:45.833Z,86.80
2017-12-08T13:04:12.676Z,87.50
2017-12-08T13:06:38.748Z,87.40
2017-12-08T13:09:04.850Z,87.70
2017-12-08T13:11:30.890Z,88.20
2017-12-08T13:13:56.987Z,88.50
2017-12-08T13:16:23.057Z,88.40
2017-12-08T13:18:54.223Z,88.20
2017-12-08T13:21:20.316Z,87.90
2017-12-08T13:23:46.372Z,89.30
2017-12-08T13:26:12.415Z,88.10
2017-12-08T13:28:38.462Z,86.70
2017-12-08T13:31:04.509Z,86.80
2017-12-08T13:33:30.570Z,87.00
2017-12-08T13:35:56.622Z,86.30
2017-12-08T13:38:22.677Z,86.60
2017-12-08T13:40:50.521Z,87.40
2017-12-08T13:43:16.570Z,86.40
2017-12-08T13:45:42.636Z,86.10
2017-12-08T13:48:08.688Z,86.30
2017-12-08T13:50:35.491Z,85.80
2017-12-08T13:53:01.547Z,85.80
2017-12-08T13:55:39.921Z,86.50
2017-12-08T13:58:05.969Z,86.10
2017-12-08T14:00:32.021Z,86.70
2017-12-08T14:02:58.963Z,85.60
2017-12-08T14:05:25.030Z,85.60
2017-12-08T14:07:51.837Z,85.30
2017-12-08T14:10:17.930Z,85.20
2017-12-08T14:12:43.998Z,85.60
2017-12-08T14:15:14.933Z,87.70
2017-12-08T14:17:41.747Z,86.00
2017-12-08T14:20:07.814Z,86.00
2017-12-08T14:22:33.894Z,87.00
2017-12-08T14:25:00.749Z,88.10
2017-12-08T14:27:26.817Z,88.10
2017-12-08T14:29:52.968Z,87.60
2017-12-08T14:32:19.024Z,88.20
2017-12-08T14:34:49.580Z,86.60
2017-12-08T14:37:15.642Z,87.40
2017-12-08T14:39:41.701Z,88.20
2017-12-08T14:42:07.761Z,87.80
2017-12-08T14:44:33.814Z,86.20
2017-12-08T14:46:59.865Z,87.00
2017-12-08T14:49:25.903Z,85.70
2017-12-08T14:51:51.949Z,85.30
2017-12-08T14:54:18.013Z,84.70
2017-12-08T14:56:44.210Z,85.30
2017-12-08T14:59:10.270Z,85.00
2017-12-08T15:01:36.318Z,84.60
2017-12-08T15:04:03.097Z,84.70
2017-12-08T15:06:29.170Z,84.60
2017-12-08T15:08:55.219Z,84.30
2017-12-08T15:11:21.290Z,83.70
2017-12-08T15:13:47.355Z,84.50
2017-12-08T15:16:13.414Z,83.90
2017-12-08T15:18:41.810Z,83.00
2017-12-08T15:21:08.610Z,81.60
2017-12-08T15:23:34.680Z,81.90
2017-12-08T15:26:00.789Z,83.60
2017-12-08T15:28:27.637Z,84.70
2017-12-08T15:30:53.717Z,84.00
2017-12-08T15:33:19.773Z,84.50
2017-12-08T15:35:45.814Z,84.70
2017-12-08T15:38:11.879Z,86.00
2017-12-08T15:40:38.262Z,85.50
2017-12-08T15:43:04.357Z,86.50
2017-12-08T15:45:30.507Z,86.80
2017-12-08T15:47:57.448Z,85.90
2017-12-08T15:50:23.518Z,85.80
2017-12-08T15:52:50.342Z,86.60
2017-12-08T15:55:16.417Z,86.60
2017-12-08T15:57:43.302Z,87.00
2017-12-08T16:00:09.935Z,86.90
2017-12-08T16:02:36.204Z,87.00
2017-12-08T16:05:02.499Z,86.80
2017-12-08T16:07:29.489Z,88.20
2017-12-08T16:09:56.466Z,88.00
2017-12-08T16:12:22.611Z,88.00
2017-12-08T16:14:48.913Z,86.20
2017-12-08T16:17:15.893Z,85.40
2017-12-08T16:19:42.895Z,84.80
2017-12-08T16:22:10.009Z,84.60
2017-12-08T16:24:36.070Z,84.50
2017-12-08T16:27:02.406Z,85.00
2017-12-08T16:29:28.657Z,84.40
2017-12-08T16:31:54.917Z,84.30
2017-12-08T16:34:21.355Z,84.50
2017-12-08T16:36:47.595Z,83.30
2017-12-08T16:39:13.865Z,84.10
2017-12-08T16:41:40.147Z,84.30
2017-12-08T16:44:06.406Z,83.30
2017-12-08T16:46:33.424Z,82.90
2017-12-08T16:49:02.709Z,82.90
2017-12-08T16:51:30.986Z,84.50
2017-12-08T16:53:58.656Z,84.30
2017-12-08T16:56:24.989Z,84.50
2017-12-08T16:58:51.229Z,85.00
2017-12-08T17:01:17.512Z,84.50
2017-12-08T17:03:44.503Z,84.40
2017-12-08T17:06:10.753Z,84.30
2017-12-08T17:08:37.002Z,83.60
2017-12-08T17:11:05.032Z,84.70
2017-12-08T17:13:31.272Z,84.00
2017-12-08T17:15:58.299Z,83.10
2017-12-08T17:18:25.264Z,83.30
2017-12-08T17:20:51.513Z,83.30
2017-12-08T17:23:17.770Z,83.10
2017-12-08T17:25:45.467Z,82.00
2017-12-08T17:28:14.917Z,81.50
2017-12-08T17:30:41.333Z,80.80
2017-12-08T17:33:07.578Z,81.20
2017-12-08T17:35:33.817Z,81.50
2017-12-08T17:38:00.078Z,80.30
2017-12-08T17:40:26.459Z,81.30
2017-12-08T17:42:55.458Z,80.30
2017-12-08T17:45:21.718Z,80.10
2017-12-08T17:47:48.869Z,79.70
2017-12-08T17:50:15.136Z,79.70
2017-12-08T17:52:42.140Z,78.90
2017-12-08T17:55:09.743Z,78.90
2017-12-08T17:57:35.966Z,78.90
2017-12-08T18:00:02.308Z,79.20
2017-12-08T18:02:28.564Z,79.60
2017-12-08T18:04:54.818Z,78.40
2017-12-08T18:07:21.061Z,78.40
2017-12-08T18:09:47.361Z,78.50
2017-12-08T18:12:13.586Z,77.90
2017-12-08T18:14:39.889Z,76.50
2017-12-08T18:17:06.987Z,76.70
2017-12-08T18:19:33.255Z,76.60
2017-12-08T18:22:00.769Z,77.30
2017-12-08T18:24:27.007Z,75.90
2017-12-08T18:26:53.238Z,77.30
2017-12-08T18:29:19.513Z,77.30
2017-12-08T18:31:45.886Z,76.30
2017-12-08T18:34:12.201Z,77.50
2017-12-08T18:36:38.446Z,76.70
2017-12-08T18:39:08.778Z,77.30
2017-12-08T18:41:35.843Z,77.00
2017-12-08T18:44:02.809Z,76.80
2017-12-08T18:46:29.064Z,76.70
2017-12-08T18:48:55.321Z,76.50
2017-12-08T18:51:21.606Z,74.90
2017-12-08T18:53:53.150Z,75.10
2017-12-08T18:56:19.458Z,74.90
2017-12-08T18:58:45.801Z,74.90
2017-12-08T19:01:12.792Z,74.40
2017-12-08T19:03:39.153Z,74.50
2017-12-08T19:06:05.409Z,74.50
2017-12-08T19:08:32.635Z,74.00
2017-12-08T19:10:59.677Z,73.60
2017-12-08T19:13:26.670Z,73.20
2017-12-08T19:15:52.898Z,72.50
2017-12-08T19:18:19.910Z,73.20
2017-12-08T19:20:46.306Z,73.10
2017-12-08T19:23:13.289Z,72.60
2017-12-08T19:25:39.564Z,72.60
2017-12-08T19:28:06.570Z,72.30
2017-12-08T19:30:32.837Z,72.30
2017-12-08T19:32:59.078Z,73.00
2017-12-08T19:35:25.317Z,72.90
2017-12-08T19:37:51.634Z,73.40
2017-12-08T19:40:17.880Z,73.20
2017-12-08T19:42:44.278Z,73.60
2017-12-08T19:45:10.561Z,75.00
2017-12-08T19:47:36.864Z,76.40
2017-12-08T19:50:03.930Z,78.30
2017-12-08T19:52:30.162Z,78.30
2017-12-08T19:54:56.405Z,79.40
2017-12-08T19:57:23.631Z,80.30
2017-12-08T19:59:49.920Z,81.30
2017-12-08T20:02:16.162Z,82.10
2017-12-08T20:04:42.455Z,84.00
2017-12-08T20:07:08.851Z,84.70
2017-12-08T20:09:35.103Z,85.90
2017-12-08T20:12:02.087Z,88.10
2017-12-08T20:14:28.334Z,88.10
2017-12-08T20:16:54.621Z,88.10
2017-12-08T20:19:20.905Z,88.70
2017-12-08T20:21:47.262Z,89.00
2017-12-08T20:24:14.402Z,88.80
2017-12-08T20:26:40.727Z,89.60
2017-12-08T20:29:07.154Z,90.20
2017-12-08T20:31:37.217Z,90.40
2017-12-08T20:34:03.534Z,90.30
2017-12-08T20:36:32.689Z,90.50
2017-12-08T20:38:59.745Z,90.80
2017-12-08T20:41:26.063Z,90.80
2017-12-08T20:43:52.298Z,90.90
2017-12-08T20:46:18.546Z,90.90
2017-12-08T20:48:44.791Z,91.10
2017-12-08T20:51:11.061Z,90.90
2017-12-08T20:53:37.322Z,90.90
2017-12-08T20:56:04.851Z,90.90
2017-12-08T20:58:31.081Z,90.70
2017-12-08T21:00:57.372Z,90.70
2017-12-08T21:03:23.617Z,90.70
2017-12-08T21:05:49.857Z,90.90
2017-12-08T21:08:16.863Z,91.00
2017-12-08T21:10:43.101Z,90.90
2017-12-08T21:13:10.089Z,91.00
2017-12-08T21:15:36.388Z,91.00
2017-12-08T21:18:02.645Z,90.80
2017-12-08T21:20:28.916Z,91.00
2017-12-08T21:22:55.176Z,91.00
2017-12-08T21:25:21.765Z,91.10
2017-12-08T21:27:47.979Z,91.00
2017-12-08T21:30:15.215Z,91.00
2017-12-08T21:32:41.462Z,90.90
2017-12-08T21:35:07.786Z,90.90
2017-12-08T21:37:34.100Z,91.20
2017-12-08T21:40:00.424Z,91.00
2017-12-08T21:42:27.432Z,91.00
2017-12-08T21:44:53.687Z,90.90
2017-12-08T21:47:20.601Z,90.80
2017-12-08T21:49:46.853Z,90.70
2017-12-08T21:52:14.173Z,90.70
2017-12-08T21:54:40.396Z,90.70
2017-12-08T21:57:06.679Z,90.80
2017-12-08T21:59:32.916Z,90.90
2017-12-08T22:01:59.795Z,90.80
2017-12-08T22:04:25.885Z,90.80
2017-12-08T22:06:52.176Z,90.50
2017-12-08T22:09:18.321Z,90.40
2017-12-08T22:11:44.461Z,90.50
2017-12-08T22:14:10.585Z,90.50
2017-12-08T22:16:36.786Z,90.30
2017-12-08T22:19:02.979Z,90.50
2017-12-08T22:21:29.033Z,90.30
2017-12-08T22:23:55.079Z,90.30
2017-12-08T22:26:21.252Z,90.30
2017-12-08T22:28:47.373Z,90.60
2017-12-08T22:31:25.222Z,90.70
2017-12-08T22:33:55.085Z,90.50
2017-12-08T22:36:21.272Z,90.40
2017-12-08T22:38:48.065Z,90.40
2017-12-08T22:41:14.494Z,90.30
2017-12-08T22:43:40.739Z,90.10
2017-12-08T22:46:06.919Z,90.10
2017-12-08T22:48:32.997Z,89.80
2017-12-08T22:50:59.864Z,90.00
2017-12-08T22:53:28.534Z,90.20
2017-12-08T22:55:54.813Z,90.10
2017-12-08T22:58:21.642Z,90.50
2017-12-08T23:00:49.138Z,90.40
2017-12-08T23:03:15.930Z,90.10
2017-12-08T23:05:41.993Z,90.00
2017-12-08T23:08:08.190Z,90.40
2017-12-08T23:10:34.309Z,90.30
2017-12-08T23:13:00.414Z,90.50
2017-12-08T23:15:26.465Z,89.80
2017-12-08T23:17:52.510Z,90.20
2017-12-08T23:20:19.373Z,90.50
2017-12-08T23:22:45.606Z,90.50
2017-12-08T23:25:11.716Z,90.40
2017-12-08T23:27:37.815Z,90.30
2017-12-08T23:30:03.888Z,90.20
2017-12-08T23:32:29.926Z,90.30
2017-12-08T23:34:55.995Z,90.20
2017-12-08T23:37:22.161Z,90.40
2017-12-08T23:39:48.273Z,90.30
2017-12-08T23:42:14.313Z,90.30
2017-12-08T23:44:40.352Z,90.40
2017-12-08T23:47:07.146Z,90.50
2017-12-08T23:49:33.793Z,90.50
2017-12-08T23:51:59.842Z,90.40
2017-12-08T23:54:25.953Z,90.50
2017-12-08T23:56:51.996Z,90.50
2017-12-08T23:59:18.050Z,90.30
